Flight Track Log - Related Links

Times and Time Zones

All times are in EDT time to prevent confusion due to time zone crossing. See the SKW7363 flight status page for this flight to view local times or setup timezone preferences in your user account.

Time Position Orientation Groundspeed Altitude Reporting Facility
EDT Latitude Longitude Course Direction KTS MPH feet Rate Location/Type
Sat 07:25:00 PM 44.1879 -108.7050 158° South  Level FlightAware Approximate
Sat 07:26:00 PM 44.0988 -108.6553 159° South  Level FlightAware Approximate
Sat 07:27:00 PM 44.0095 -108.6066 159° South  Level FlightAware Approximate
Sat 07:28:00 PM 43.9206 -108.5564 157° South  Level FlightAware Approximate
Sat 07:28:15 PM 44.5028 -109.0614 156° South 158 182 6,300  Level Salt Lake Center
Sat 07:29:00 PM 43.8390 -108.5088 157° South  Level FlightAware Approximate
Sat 07:29:16 PM 44.4558 -109.0725 190° South 214 246 8,700  Level Salt Lake Center
Sat 07:30:00 PM 43.7573 -108.4613 157° South  Level FlightAware Approximate
Sat 07:30:18 PM 44.4444 -108.9911 101° East 231 266 11,100  Level Salt Lake Center
Sat 07:31:00 PM 43.6754 -108.4144 157° South  Level FlightAware Approximate
Sat 07:31:19 PM 44.5119 -108.9694 13° North 245 282 13,000  Level Salt Lake Center
Sat 07:32:00 PM 43.5936 -108.3677 158° South  Level FlightAware Approximate
Sat 07:32:20 PM 44.5783 -108.9292 23° Northeast 267 307 15,000  Level Salt Lake Center
Sat 07:33:00 PM 43.5119 -108.3204 156° South  Level FlightAware Approximate
Sat 07:33:22 PM 44.5422 -108.8539 124° Southeast 279 321 16,800  Level Salt Lake Center
Sat 07:34:23 PM 44.4783 -108.9122 213° Southwest 278 320 18,600 1,366 Climbing Salt Lake Center
Sat 07:35:25 PM 44.4047 -108.9997 220° Southwest 287 330 19,600 976 Climbing Salt Lake Center
Sat 07:36:26 PM 44.3350 -109.0842 221° Southwest 318 366 20,600 976 Climbing Salt Lake Center
Sat 07:37:28 PM 44.2633 -109.1672 220° Southwest 334 384 21,600 927 Climbing Salt Lake Center
Sat 07:38:29 PM 44.1922 -109.2556 222° Southwest 341 392 22,500 1,024 Climbing Salt Lake Center
Sat 07:39:31 PM 44.1189 -109.3439 221° Southwest 346 398 23,700 1,122 Climbing Salt Lake Center
Sat 07:40:32 PM 44.0444 -109.4336 221° Southwest 354 407 24,800 1,171 Climbing Salt Lake Center
Sat 07:41:34 PM 43.9581 -109.5367 221° Southwest 356 410 26,100 976 Climbing Salt Lake Center
Sat 07:42:35 PM 43.8861 -109.6228 221° Southwest 356 410 26,800 683 Climbing Salt Lake Center
Sat 07:43:37 PM 43.8125 -109.7097 220° Southwest 362 417 27,500 683 Climbing Salt Lake Center
Sat 07:44:38 PM 43.7275 -109.8122 221° Southwest 364 419 28,200 634 Climbing Salt Lake Center
Sat 07:45:40 PM 43.6542 -109.8978 220° Southwest 362 417 28,800 585 Climbing Salt Lake Center
Sat 07:46:41 PM 43.5667 -110.0008 220° Southwest 366 421 29,400 585 Climbing Salt Lake Center
Sat 07:47:43 PM 43.4928 -110.0869 220° Southwest 363 418 30,000 293 Climbing Salt Lake Center
Sat 07:48:44 PM 43.4181 -110.1750 221° Southwest 367 422 30,000  Level Salt Lake Center
Sat 07:49:46 PM 43.3275 -110.2797 220° Southwest 377 434 30,000  Level Salt Lake Center
Sat 07:50:47 PM 43.2486 -110.3714 220° Southwest 386 444 30,000  Level Salt Lake Center
Sat 07:51:49 PM 43.1561 -110.4825 221° Southwest 391 450 30,000  Level Salt Lake Center
Sat 07:52:50 PM 43.0789 -110.5711 220° Southwest 382 440 30,000  Level Salt Lake Center
Sat 07:53:52 PM 43.0003 -110.6592 219° Southwest 381 438 30,000  Level Salt Lake Center
Sat 07:54:53 PM 42.9092 -110.7650 220° Southwest 383 441 30,000 -293 Level Salt Lake Center
Sat 07:55:55 PM 42.8308 -110.8539 220° Southwest 382 440 29,400 -829 Descending Salt Lake Center
Sat 07:56:56 PM 42.7314 -110.9661 220° Southwest 410 472 28,300 -683 Descending Salt Lake Center
Sat 07:57:58 PM 42.6450 -111.0639 220° Southwest 420 483 28,000 -146 Descending Salt Lake Center
Sat 07:58:59 PM 42.5572 -111.1622 220° Southwest 412 474 28,000  Level Salt Lake Center
Sat 08:00:01 PM 42.4706 -111.2592 220° Southwest 406 467 28,000  Level Salt Lake Center
Sat 08:01:02 PM 42.3850 -111.3553 220° Southwest 402 463 28,000  Level Salt Lake Center
Sat 08:02:04 PM 42.2986 -111.4522 220° Southwest 405 466 28,000  Level Salt Lake Center
Sat 08:03:05 PM 42.1942 -111.5681 219° Southwest 405 466 28,000 -246 Level Salt Lake Center
Sat 08:04:06 PM 42.1039 -111.6639 218° Southwest 413 475 27,500 -1,512 Descending Salt Lake Center
Sat 08:05:08 PM 42.0042 -111.7336 207° Southwest 406 467 24,900 -2,488 Descending Salt Lake Center
Sat 08:06:09 PM 41.9067 -111.8028 208° Southwest 400 460 22,400 -2,439 Descending Salt Lake Center
Sat 08:07:11 PM 41.8106 -111.8694 207° Southwest 394 453 19,900 -2,579 Descending Salt Lake Center
Sat 08:08:03 PM 41.7219 -111.9250 205° Southwest 377 434 17,500 -2,420 Descending Salt Lake Center
Sat 08:09:10 PM 41.6272 -111.9922 208° Southwest 360 414 15,100 -1,828 Descending Salt Lake Center
Sat 08:10:11 PM 41.5600 -112.0669 220° Southwest 324 373 13,600 -1,619 Descending Salt Lake Center
Sat 08:11:16 PM 41.4731 -112.1308 209° Southwest 313 360 11,700 -1,736 Descending Salt Lake Center
Sat 08:12:12 PM 41.3983 -112.1108 169° South 294 338 10,100 -1,086 Descending Salt Lake Center
Sat 08:13:12 PM 41.3225 -112.1081 178° South 287 330 9,600 -893 Descending Salt Lake Center
Sat 08:14:13 PM 41.2528 -112.1489 204° Southwest 274 315 8,300 -787 Descending Salt Lake Center
Sat 08:15:14 PM 41.1806 -112.1306 169° South 268 308 8,000 -149 Descending Salt Lake Center
Sat 08:16:14 PM 41.1117 -112.0858 154° Southeast 269 310 8,000  Level Salt Lake Center
Sat 08:17:15 PM 41.0475 -112.0450 154° Southeast 263 303 8,000 -197 Level Salt Lake Center
Sat 08:18:16 PM 40.9861 -112.0061 154° Southeast 248 285 7,600 -595 Descending Salt Lake Center
Sat 08:19:16 PM 40.9275 -111.9922 170° South 207 238 6,800 -1,041 Descending Salt Lake Center
Sat 08:20:17 PM 40.8744 -111.9847 174° South 176 203 5,500 -984 Descending Salt Lake Center
Sat 08:21:18 PM 40.8350 -111.9811 176° South 139 160 4,800 -582 Descending Salt Lake Center
Sat 08:22:31 PM 40.7956 -111.9753 174° South 132 152 4,200 -493 Descending Salt Lake Center

Login

Don't have an account? Register now (free) for customized features, flight alerts, and more!